Emigrant Pass, Nevada
Current Conditions -  °F | °C
As of 12:56 PM on Monday 24 Nov 2014 (Local Time) from KEKO Reporting Station
Clear Clear  
Wind Chill: 36°   Ceiling: Unl
Heat Index: 42°   Visibility: 10mi
Dew Point: 21°   Wind: 10mph
Humidity: 43%   Direction: 250°WSW
Pressure: 30.42"   Gusts: NA
Location:  40.4796°N, 116.369°W
Report Text: KEKO 242056Z AUTO 25009KT 10SM CLR 06/M06 A3042 RMK AO2 SLP319 T00561061 58009
Loading
Personal Weather Stations






























Interactive Weather Map New forecast layout! Learn more

10-Day Weather Forecast

Advertisements
Track Severe Weather on mobile